Time;durP1;ratioP1;P1;durP2;ratioP2;P2;SDS_P1;SDS_P2;PMS_P1;PMS_P2;Temp;Humidity;BMP_temperature;BMP_pressure;BME280_temperature;BME280_humidity;BME280_pressure;Samples;Min_cycle;Max_cycle;Signal;HPM_P1;HPM_P2
2022/01/10 00:02:00;;;;;;;;;;;;;;;0.84;88.32;100416.31;5041463;27;20308;-67
2022/01/10 00:04:25;;;;;;;;;;;;;;;0.89;88.04;100418.66;5037046;27;20008;-68
2022/01/10 00:06:50;;;;;;;;;;;;;;;0.78;87.43;100414.03;5013684;27;20304;-67
2022/01/10 00:09:16;;;;;;;;;;;;;;;0.76;88.37;100413.25;5051052;27;19985;-68
2022/01/10 00:11:41;;;;;;;;;;;;;;;0.79;88.38;100418.31;5038706;27;20011;-68
2022/01/10 00:14:06;;;;;;;;;;;;;;;0.78;88.52;100427.06;5055021;27;19968;-68
2022/01/10 00:16:31;;;;;;;;;;;;;;;0.78;88.85;100424.47;5058860;27;20494;-69
2022/01/10 00:18:56;;;;;;;;;;;;;;;0.81;88.73;100426.88;5056427;27;19938;-69
2022/01/10 00:21:22;;;;;;;;;;;;;;;0.83;88.84;100425.03;5058588;27;20458;-68
2022/01/10 00:23:47;;;;;;;;;;;;;;;0.81;89.18;100432.09;5076597;27;20000;-69
2022/01/10 00:26:12;;;;;;;;;;;;;;;0.83;88.92;100432.84;5058146;27;20486;-68
2022/01/10 00:28:37;;;;;;;;;;;;;;;0.87;89.33;100428.31;5057209;27;19944;-69
2022/01/10 00:31:03;;;;;;;;;;;;;;;0.89;89.17;100440.34;5051291;27;20392;-68
2022/01/10 00:33:28;;;;;;;;;;;;;;;0.89;89.43;100437.75;5014740;28;20303;-67
2022/01/10 00:35:53;;;;;;;;;;;;;;;0.93;88.88;100431.44;5053006;27;19903;-68
2022/01/10 00:38:18;;;;;;;;;;;;;;;0.96;89.03;100436.50;5048801;27;19918;-68
2022/01/10 00:40:44;;;;;;;;;;;;;;;0.98;89.24;100434.63;5055591;27;19919;-68
2022/01/10 00:43:17;;;;;;;;;;;;;;;0.98;88.64;100439.00;5040096;27;19899;-67
2022/01/10 00:45:42;;;;;;;;;;;;;;;1.00;88.56;100438.00;5032683;27;19994;-69
2022/01/10 00:48:08;;;;;;;;;;;;;;;0.94;88.75;100443.53;5039361;27;20737;-68
2022/01/10 00:50:33;;;;;;;;;;;;;;;0.89;88.97;100445.56;5050965;27;20524;-69
2022/01/10 00:52:58;;;;;;;;;;;;;;;0.88;88.79;100456.91;5075408;27;20889;-67
2022/01/10 00:55:24;;;;;;;;;;;;;;;0.79;88.91;100459.97;5073026;27;20011;-69
2022/01/10 00:57:49;;;;;;;;;;;;;;;0.83;88.50;100466.72;5065288;27;20012;-69
2022/01/10 01:00:14;;;;;;;;;;;;;;;0.78;88.76;100463.53;5034237;27;19927;-69
2022/01/10 01:02:40;;;;;;;;;;;;;;;0.75;88.56;100469.72;5056137;27;20128;-70
2022/01/10 01:05:06;;;;;;;;;;;;;;;0.75;88.43;100471.47;5036345;27;19911;-66
2022/01/10 01:07:32;;;;;;;;;;;;;;;0.67;88.43;100472.72;5023366;27;19908;-68
2022/01/10 01:10:15;;;;;;;;;;;;;;;0.64;88.10;100477.25;5052894;27;19922;-69
2022/01/10 01:12:49;;;;;;;;;;;;;;;0.65;88.24;100484.16;5057232;27;20205;-67
2022/01/10 01:15:20;;;;;;;;;;;;;;;0.53;88.58;100482.19;5036286;27;20011;-66
2022/01/10 01:18:10;;;;;;;;;;;;;;;0.53;88.82;100487.41;5057275;27;19907;-70
2022/01/10 01:25:47;;;;;;;;;;;;;;;0.57;88.32;100507.97;5057734;27;19906;-68
2022/01/10 01:28:12;;;;;;;;;;;;;;;0.56;87.55;100511.50;5055805;27;19903;-68
2022/01/10 01:30:37;;;;;;;;;;;;;;;0.54;87.76;100521.16;5057230;27;19903;-68
2022/01/10 01:33:02;;;;;;;;;;;;;;;0.50;87.61;100525.66;5020840;27;19907;-69
2022/01/10 01:35:28;;;;;;;;;;;;;;;0.45;87.72;100534.63;5056482;27;19939;-68
2022/01/10 01:37:54;;;;;;;;;;;;;;;0.41;87.57;100539.16;5038377;27;19907;-67
2022/01/10 01:40:21;;;;;;;;;;;;;;;0.36;87.52;100541.13;5056648;27;19927;-67
2022/01/10 01:42:47;;;;;;;;;;;;;;;0.30;87.45;100549.25;5060157;27;20339;-68
2022/01/10 01:45:12;;;;;;;;;;;;;;;0.24;88.02;100554.75;5039631;27;20266;-67
2022/01/10 01:47:38;;;;;;;;;;;;;;;0.22;87.78;100552.22;5039563;27;20379;-67
2022/01/10 01:50:04;;;;;;;;;;;;;;;0.19;88.02;100560.19;5039942;27;20207;-67
2022/01/10 01:52:29;;;;;;;;;;;;;;;0.19;87.68;100554.97;5036012;27;19971;-69
2022/01/10 01:54:54;;;;;;;;;;;;;;;0.17;88.03;100567.25;5057334;27;19906;-69
2022/01/10 01:57:20;;;;;;;;;;;;;;;0.11;87.92;100578.78;5022128;27;20472;-69
2022/01/10 01:59:45;;;;;;;;;;;;;;;0.04;88.36;100582.56;5038483;27;19991;-70
2022/01/10 02:02:10;;;;;;;;;;;;;;;0.08;88.51;100575.47;5019804;27;19911;-68
2022/01/10 02:04:36;;;;;;;;;;;;;;;0.07;88.78;100578.97;5058242;27;19900;-68
2022/01/10 02:07:01;;;;;;;;;;;;;;;0.07;88.71;100581.59;5034781;27;20036;-67
2022/01/10 02:09:26;;;;;;;;;;;;;;;0.07;88.66;100589.38;5033312;27;19963;-68
2022/01/10 02:11:52;;;;;;;;;;;;;;;0.13;89.04;100595.16;5034275;27;20504;-67
2022/01/10 02:14:18;;;;;;;;;;;;;;;0.18;88.80;100594.91;5039874;27;19911;-68
2022/01/10 02:16:45;;;;;;;;;;;;;;;0.20;88.88;100600.91;5042175;27;20684;-68
2022/01/10 02:19:11;;;;;;;;;;;;;;;0.17;88.44;100608.88;5037909;27;20730;-66
2022/01/10 02:21:36;;;;;;;;;;;;;;;0.18;88.57;100610.53;5055277;27;20012;-67
2022/01/10 02:24:01;;;;;;;;;;;;;;;0.16;88.50;100615.00;5022525;27;21227;-67
2022/01/10 02:26:27;;;;;;;;;;;;;;;0.17;88.22;100614.91;5054008;27;19926;-68
2022/01/10 02:28:52;;;;;;;;;;;;;;;0.12;88.31;100616.03;5038971;27;20511;-67
2022/01/10 02:31:17;;;;;;;;;;;;;;;0.13;88.06;100618.56;5037139;27;19940;-71
2022/01/10 02:33:42;;;;;;;;;;;;;;;0.13;87.99;100625.53;5040141;27;20027;-70
2022/01/10 02:36:22;;;;;;;;;;;;;;;0.02;87.76;100625.22;5036826;27;19963;-68
2022/01/10 02:38:51;;;;;;;;;;;;;;;-0.05;88.02;100624.66;5058954;27;19998;-69
2022/01/10 02:41:26;;;;;;;;;;;;;;;-0.06;88.39;100628.97;5021461;27;20012;-69
2022/01/10 02:43:52;;;;;;;;;;;;;;;-0.06;88.36;100648.97;5037525;27;20645;-69
2022/01/10 02:46:17;;;;;;;;;;;;;;;-0.04;88.02;100647.97;5038651;27;19904;-67
2022/01/10 02:48:42;;;;;;;;;;;;;;;-0.06;87.88;100644.59;5037790;27;20009;-69
2022/01/10 02:51:07;;;;;;;;;;;;;;;-0.13;87.87;100652.75;5056872;27;20031;-67
2022/01/10 02:53:32;;;;;;;;;;;;;;;-0.12;88.02;100650.09;5028421;27;20027;-69
2022/01/10 02:55:58;;;;;;;;;;;;;;;-0.12;87.99;100665.69;5053892;27;19919;-68
2022/01/10 02:58:23;;;;;;;;;;;;;;;-0.21;87.68;100655.72;5057269;27;19987;-69
2022/01/10 03:00:48;;;;;;;;;;;;;;;-0.18;88.01;100665.97;5038524;27;20140;-68
2022/01/10 03:03:13;;;;;;;;;;;;;;;-0.20;87.61;100665.19;5039460;27;19962;-68
2022/01/10 03:05:39;;;;;;;;;;;;;;;-0.24;87.84;100672.31;5057038;27;19975;-67
2022/01/10 03:08:04;;;;;;;;;;;;;;;-0.22;87.58;100672.25;5062882;27;20012;-68
2022/01/10 03:10:29;;;;;;;;;;;;;;;-0.22;87.40;100674.84;5059205;27;20797;-68
2022/01/10 03:12:55;;;;;;;;;;;;;;;-0.29;87.52;100689.88;5037978;27;19903;-69
2022/01/10 03:15:20;;;;;;;;;;;;;;;-0.30;87.76;100689.94;5057771;27;19913;-69
2022/01/10 03:17:45;;;;;;;;;;;;;;;-0.30;87.36;100682.13;5056281;27;19913;-69
2022/01/10 03:20:11;;;;;;;;;;;;;;;-0.35;87.42;100690.97;5037387;27;20067;-69
2022/01/10 03:22:36;;;;;;;;;;;;;;;-0.36;87.78;100697.09;5034976;27;19955;-69
2022/01/10 03:25:01;;;;;;;;;;;;;;;-0.31;88.27;100701.25;5039639;27;19907;-69
2022/01/10 03:27:26;;;;;;;;;;;;;;;-0.31;88.22;100696.03;5037509;27;19993;-68
2022/01/10 03:29:52;;;;;;;;;;;;;;;-0.35;87.99;100703.97;5038463;27;19911;-69
2022/01/10 03:32:17;;;;;;;;;;;;;;;-0.35;88.38;100716.97;5056600;27;19911;-68
2022/01/10 03:34:42;;;;;;;;;;;;;;;-0.35;88.03;100711.78;5056905;27;19907;-69
2022/01/10 03:37:07;;;;;;;;;;;;;;;-0.37;88.20;100717.94;5015521;27;19922;-69
2022/01/10 03:39:33;;;;;;;;;;;;;;;-0.31;88.20;100716.84;5033734;27;20262;-69
2022/01/10 03:41:58;;;;;;;;;;;;;;;-0.29;87.60;100731.47;5036179;27;20915;-66
2022/01/10 03:44:23;;;;;;;;;;;;;;;-0.36;88.11;100728.28;5033690;27;20011;-70
2022/01/10 03:46:49;;;;;;;;;;;;;;;-0.43;87.80;100731.22;5037248;27;20000;-69
2022/01/10 03:49:14;;;;;;;;;;;;;;;-0.45;87.87;100731.31;5035261;27;19952;-70
2022/01/10 03:51:39;;;;;;;;;;;;;;;-0.41;88.29;100732.84;5037955;27;19917;-68
2022/01/10 03:54:04;;;;;;;;;;;;;;;-0.44;87.65;100735.56;5035886;27;19908;-69
2022/01/10 03:56:30;;;;;;;;;;;;;;;-0.45;87.88;100733.91;5038458;27;19938;-69
2022/01/10 03:58:55;;;;;;;;;;;;;;;-0.49;88.08;100734.06;5037862;27;19907;-68
2022/01/10 04:01:20;;;;;;;;;;;;;;;-0.54;87.94;100742.94;5021561;27;20414;-69
2022/01/10 04:03:46;;;;;;;;;;;;;;;-0.55;87.82;100746.44;5054572;27;19955;-69
2022/01/10 04:06:11;;;;;;;;;;;;;;;-0.57;87.63;100742.22;5055456;27;19907;-68
2022/01/10 04:08:36;;;;;;;;;;;;;;;-0.61;87.52;100746.69;5049808;27;19911;-68
2022/01/10 04:11:02;;;;;;;;;;;;;;;-0.60;87.77;100752.75;5036147;27;19904;-68
2022/01/10 04:13:27;;;;;;;;;;;;;;;-0.67;87.78;100754.75;5020873;27;19917;-67
2022/01/10 04:15:52;;;;;;;;;;;;;;;-0.62;87.72;100760.63;5054674;27;19899;-68
2022/01/10 04:18:18;;;;;;;;;;;;;;;-0.58;88.00;100761.31;5040945;27;20080;-68
2022/01/10 04:20:43;;;;;;;;;;;;;;;-0.57;88.05;100774.25;5056652;27;19963;-69
2022/01/10 04:23:08;;;;;;;;;;;;;;;-0.59;87.63;100770.00;5057812;27;20516;-67
2022/01/10 04:25:34;;;;;;;;;;;;;;;-0.63;87.21;100782.31;5073187;27;19926;-68
2022/01/10 04:27:59;;;;;;;;;;;;;;;-0.66;87.30;100790.25;5079607;27;20362;-67
2022/01/10 04:30:24;;;;;;;;;;;;;;;-0.63;87.61;100789.28;5056859;27;19971;-68
2022/01/10 04:32:49;;;;;;;;;;;;;;;-0.63;87.28;100804.88;5037198;27;20016;-68
2022/01/10 04:35:15;;;;;;;;;;;;;;;-0.64;87.66;100813.56;5036113;27;20306;-69
2022/01/10 04:37:40;;;;;;;;;;;;;;;-0.70;87.54;100814.66;5028527;28;20081;-68
2022/01/10 04:40:05;;;;;;;;;;;;;;;-0.77;88.02;100819.25;5050105;27;19923;-68
2022/01/10 04:42:31;;;;;;;;;;;;;;;-0.83;88.02;100814.31;5060398;27;20027;-68
2022/01/10 04:44:56;;;;;;;;;;;;;;;-0.73;87.99;100835.56;5054847;27;20027;-69
2022/01/10 04:47:21;;;;;;;;;;;;;;;-0.68;88.05;100843.19;5047331;27;19914;-69
2022/01/10 04:52:24;;;;;;;;;;;;;;;-0.72;87.61;100847.63;5038385;27;20123;-68
2022/01/10 04:54:49;;;;;;;;;;;;;;;-0.77;87.07;100854.78;5036281;27;20314;-69
2022/01/10 04:57:14;;;;;;;;;;;;;;;-0.83;87.46;100866.28;5044661;27;20976;-69
2022/01/10 04:59:39;;;;;;;;;;;;;;;-0.81;87.61;100868.81;5056742;27;20023;-69
2022/01/10 05:02:05;;;;;;;;;;;;;;;-0.88;87.91;100871.63;5044443;27;20575;-69
2022/01/10 05:04:30;;;;;;;;;;;;;;;-0.85;87.88;100883.66;5036787;27;19903;-70
2022/01/10 05:06:55;;;;;;;;;;;;;;;-0.83;87.88;100892.25;5035409;27;19919;-69
2022/01/10 05:09:20;;;;;;;;;;;;;;;-0.81;87.77;100889.59;5056077;27;19952;-68
2022/01/10 05:11:46;;;;;;;;;;;;;;;-0.82;87.97;100891.31;5048835;27;20009;-69
2022/01/10 05:14:11;;;;;;;;;;;;;;;-0.79;87.98;100893.81;5034809;27;19911;-68
2022/01/10 05:16:39;;;;;;;;;;;;;;;-0.78;88.16;100898.09;5049144;27;20958;-69
2022/01/10 05:19:04;;;;;;;;;;;;;;;-0.70;88.25;100896.03;5057957;27;20024;-69
2022/01/10 05:21:29;;;;;;;;;;;;;;;-0.65;88.29;100905.41;5039403;27;19903;-68
2022/01/10 05:23:55;;;;;;;;;;;;;;;-0.61;88.39;100917.38;5060163;27;20366;-68
2022/01/10 05:26:20;;;;;;;;;;;;;;;-0.52;88.64;100925.66;5057987;27;19956;-70
2022/01/10 05:28:45;;;;;;;;;;;;;;;-0.51;88.68;100931.69;5060138;27;20019;-69
2022/01/10 05:31:10;;;;;;;;;;;;;;;-0.44;89.02;100940.09;5021118;27;19914;-69
2022/01/10 05:33:35;;;;;;;;;;;;;;;-0.38;89.19;100939.84;5058386;27;20016;-68
2022/01/10 05:36:01;;;;;;;;;;;;;;;-0.29;88.90;100944.69;5050436;27;20652;-69
2022/01/10 05:38:26;;;;;;;;;;;;;;;-0.28;89.25;100950.72;5046699;27;19908;-70
2022/01/10 05:40:51;;;;;;;;;;;;;;;-0.22;89.06;100958.31;5054940;27;19923;-67
2022/01/10 05:43:17;;;;;;;;;;;;;;;-0.15;89.38;100967.53;5052953;27;19904;-68
2022/01/10 05:45:43;;;;;;;;;;;;;;;-0.10;89.22;100970.81;5049499;27;19930;-67
2022/01/10 05:48:12;;;;;;;;;;;;;;;-0.05;89.25;100981.03;5030659;27;19907;-69
2022/01/10 05:50:37;;;;;;;;;;;;;;;-0.01;89.26;100985.19;5054468;27;19911;-69
2022/01/10 05:53:03;;;;;;;;;;;;;;;0.05;89.36;100994.50;5027479;27;19911;-68
2022/01/10 05:55:28;;;;;;;;;;;;;;;0.06;89.00;100991.84;5030440;27;20410;-70
2022/01/10 05:57:53;;;;;;;;;;;;;;;0.07;89.31;100995.25;5054025;27;19914;-71
2022/01/10 06:00:18;;;;;;;;;;;;;;;0.15;89.63;101006.22;5017358;27;19927;-70
2022/01/10 06:02:44;;;;;;;;;;;;;;;0.13;89.38;101008.03;5038081;27;20514;-71
2022/01/10 06:05:09;;;;;;;;;;;;;;;0.20;89.74;101017.28;5015220;27;20749;-67
2022/01/10 06:07:38;;;;;;;;;;;;;;;0.22;89.73;101018.06;5023932;27;19959;-68
2022/01/10 06:10:03;;;;;;;;;;;;;;;0.29;89.52;101016.06;5057675;27;19934;-68
2022/01/10 06:12:29;;;;;;;;;;;;;;;0.38;89.54;101020.03;5029532;27;20839;-67
2022/01/10 06:14:54;;;;;;;;;;;;;;;0.36;89.24;101034.88;5031309;27;19933;-68
2022/01/10 06:17:19;;;;;;;;;;;;;;;0.33;88.97;101041.88;5046773;27;20123;-68
2022/01/10 06:19:44;;;;;;;;;;;;;;;0.29;89.40;101045.53;5006626;27;19931;-69
2022/01/10 06:22:10;;;;;;;;;;;;;;;0.28;89.20;101046.44;5028747;27;20239;-67
2022/01/10 06:24:35;;;;;;;;;;;;;;;0.36;89.39;101060.91;5045981;27;19907;-69
2022/01/10 06:27:00;;;;;;;;;;;;;;;0.37;89.36;101058.22;5029691;27;20118;-69
2022/01/10 06:29:25;;;;;;;;;;;;;;;0.35;89.57;101067.84;5043287;27;20468;-69
2022/01/10 06:31:51;;;;;;;;;;;;;;;0.42;89.75;101073.66;5024933;27;20065;-69
2022/01/10 06:34:18;;;;;;;;;;;;;;;0.46;89.74;101068.25;5020288;27;19918;-69
2022/01/10 06:36:43;;;;;;;;;;;;;;;0.49;89.42;101072.47;5043431;27;20697;-69
2022/01/10 06:39:08;;;;;;;;;;;;;;;0.59;89.18;101081.63;5012900;27;19963;-67
2022/01/10 06:41:33;;;;;;;;;;;;;;;0.56;89.21;101084.34;5021210;27;19931;-69
2022/01/10 06:43:59;;;;;;;;;;;;;;;0.54;89.17;101087.91;5026146;27;20406;-68
2022/01/10 06:46:24;;;;;;;;;;;;;;;0.55;89.21;101093.09;5040655;27;19940;-69
2022/01/10 06:48:49;;;;;;;;;;;;;;;0.47;89.50;101095.16;5028416;27;20301;-68
2022/01/10 06:51:14;;;;;;;;;;;;;;;0.44;89.58;101100.50;5028744;27;20015;-69
2022/01/10 06:53:39;;;;;;;;;;;;;;;0.49;89.59;101106.34;5034406;27;20279;-69
2022/01/10 06:56:05;;;;;;;;;;;;;;;0.47;89.79;101111.59;5020434;27;19960;-68
2022/01/10 06:58:30;;;;;;;;;;;;;;;0.51;89.23;101123.59;5037835;27;20134;-69
2022/01/10 07:00:55;;;;;;;;;;;;;;;0.49;89.33;101129.78;5048826;27;19930;-68
2022/01/10 07:03:20;;;;;;;;;;;;;;;0.49;89.22;101134.97;5054011;27;19919;-68
2022/01/10 07:05:45;;;;;;;;;;;;;;;0.54;89.53;101138.25;5065488;27;19922;-70
2022/01/10 07:08:11;;;;;;;;;;;;;;;0.54;89.26;101142.59;5042981;27;19911;-70
2022/01/10 07:10:36;;;;;;;;;;;;;;;0.51;89.31;101146.19;5055181;27;19915;-68
2022/01/10 07:13:01;;;;;;;;;;;;;;;0.55;89.17;101144.28;5061631;27;19936;-67
2022/01/10 07:15:27;;;;;;;;;;;;;;;0.60;89.47;101164.03;5037367;27;19956;-68
2022/01/10 07:17:52;;;;;;;;;;;;;;;0.59;89.36;101162.34;5027819;27;19992;-71
2022/01/10 07:20:17;;;;;;;;;;;;;;;0.61;89.07;101164.91;5033867;27;20842;-70
2022/01/10 07:22:42;;;;;;;;;;;;;;;0.61;88.97;101170.94;5058219;27;19964;-67
2022/01/10 07:25:08;;;;;;;;;;;;;;;0.64;88.93;101183.00;5043142;27;19911;-67
2022/01/10 07:27:34;;;;;;;;;;;;;;;0.63;89.29;101189.09;5038508;27;19907;-68
2022/01/10 07:30:00;;;;;;;;;;;;;;;0.67;89.64;101196.72;5038489;27;19974;-69
2022/01/10 07:32:29;;;;;;;;;;;;;;;0.67;89.42;101209.75;5036674;27;20350;-69
2022/01/10 07:34:54;;;;;;;;;;;;;;;0.71;88.93;101214.88;5038398;27;19903;-68
2022/01/10 07:37:20;;;;;;;;;;;;;;;0.78;88.84;101208.50;5049637;27;19907;-69
2022/01/10 07:39:45;;;;;;;;;;;;;;;0.70;88.84;101221.81;5036016;27;20016;-67
2022/01/10 07:42:10;;;;;;;;;;;;;;;0.75;88.80;101216.41;5038358;27;20008;-67
2022/01/10 07:44:36;;;;;;;;;;;;;;;0.85;88.61;101228.16;5039735;27;20221;-66
2022/01/10 07:47:02;;;;;;;;;;;;;;;0.80;88.36;101235.31;5056581;27;19964;-69
2022/01/10 07:49:27;;;;;;;;;;;;;;;0.76;88.79;101236.34;5041799;27;19907;-69
2022/01/10 07:51:52;;;;;;;;;;;;;;;0.77;88.52;101238.03;5055018;27;19918;-69
2022/01/10 07:54:17;;;;;;;;;;;;;;;0.78;88.62;101244.97;5038873;27;20036;-67
2022/01/10 07:56:43;;;;;;;;;;;;;;;0.74;88.94;101251.19;5037210;27;20336;-68
2022/01/10 07:59:08;;;;;;;;;;;;;;;0.78;89.13;101256.22;5056533;27;20024;-67
2022/01/10 08:01:33;;;;;;;;;;;;;;;0.78;88.92;101269.25;5054014;27;20306;-67
2022/01/10 08:03:58;;;;;;;;;;;;;;;0.84;89.08;101279.41;5038019;27;20975;-67
2022/01/10 08:06:23;;;;;;;;;;;;;;;0.90;88.07;101275.72;5034884;27;19974;-68
2022/01/10 08:08:49;;;;;;;;;;;;;;;0.94;88.14;101279.06;5037382;27;19907;-67
2022/01/10 08:11:14;;;;;;;;;;;;;;;0.80;87.74;101284.81;5034807;27;19913;-66
2022/01/10 08:13:41;;;;;;;;;;;;;;;0.72;87.86;101282.53;5056849;27;19933;-68
2022/01/10 08:16:06;;;;;;;;;;;;;;;0.65;88.86;101287.13;5056717;27;20325;-66
2022/01/10 08:18:33;;;;;;;;;;;;;;;0.75;88.80;101291.94;5034827;27;20230;-66
2022/01/10 08:20:59;;;;;;;;;;;;;;;0.77;88.37;101300.56;5037714;27;20942;-67
2022/01/10 08:23:24;;;;;;;;;;;;;;;0.71;88.16;101306.88;5022417;27;20020;-68
2022/01/10 08:25:49;;;;;;;;;;;;;;;0.65;87.90;101305.34;5054689;27;19899;-67
2022/01/10 08:28:14;;;;;;;;;;;;;;;0.61;87.87;101308.97;5019495;27;19930;-66
2022/01/10 08:30:40;;;;;;;;;;;;;;;0.53;87.58;101310.19;5035647;27;19944;-67
2022/01/10 08:33:05;;;;;;;;;;;;;;;0.49;87.72;101323.31;5042298;27;20347;-66
2022/01/10 08:35:30;;;;;;;;;;;;;;;0.57;87.98;101328.22;5036369;27;19964;-68
2022/01/10 08:37:55;;;;;;;;;;;;;;;0.56;87.62;101321.31;5043521;27;20020;-67
2022/01/10 08:40:21;;;;;;;;;;;;;;;0.63;87.88;101319.31;5034785;27;21480;-67
2022/01/10 08:42:46;;;;;;;;;;;;;;;0.58;87.51;101319.50;5022600;27;20338;-68
2022/01/10 08:45:11;;;;;;;;;;;;;;;0.64;87.37;101332.28;5036637;27;19983;-67
2022/01/10 08:47:37;;;;;;;;;;;;;;;0.65;87.22;101343.56;5040620;27;20459;-67
2022/01/10 08:50:02;;;;;;;;;;;;;;;0.70;87.11;101346.00;5038910;27;19918;-68
2022/01/10 08:52:27;;;;;;;;;;;;;;;0.84;86.97;101351.53;5062271;27;20028;-67
2022/01/10 08:54:53;;;;;;;;;;;;;;;0.93;87.06;101352.91;5040445;27;20674;-66
2022/01/10 08:57:18;;;;;;;;;;;;;;;1.05;86.64;101356.81;5062800;27;20860;-67
2022/01/10 08:59:43;;;;;;;;;;;;;;;1.15;86.42;101363.34;5022824;27;20789;-66
2022/01/10 09:02:09;;;;;;;;;;;;;;;1.33;85.66;101362.63;5056547;27;19907;-67
2022/01/10 09:04:34;;;;;;;;;;;;;;;1.42;85.43;101361.38;5023989;27;20659;-66
2022/01/10 09:07:02;;;;;;;;;;;;;;;1.51;84.80;101365.41;5032979;27;19914;-67
2022/01/10 09:09:27;;;;;;;;;;;;;;;1.64;84.33;101371.78;5029100;27;19904;-67
2022/01/10 09:11:52;;;;;;;;;;;;;;;1.77;84.11;101364.28;5016702;27;19918;-68
2022/01/10 09:14:18;;;;;;;;;;;;;;;1.83;83.72;101365.81;5034990;27;20164;-69
2022/01/10 09:16:43;;;;;;;;;;;;;;;2.02;83.48;101371.94;5033771;27;20412;-66
2022/01/10 09:19:08;;;;;;;;;;;;;;;2.22;82.98;101365.00;5036775;27;20016;-67
2022/01/10 09:21:34;;;;;;;;;;;;;;;2.51;82.50;101378.50;5057237;27;20015;-66
2022/01/10 09:23:59;;;;;;;;;;;;;;;2.89;81.06;101374.16;5053202;27;19911;-67
2022/01/10 09:26:24;;;;;;;;;;;;;;;3.32;79.95;101381.72;5021641;27;19911;-67
2022/01/10 09:28:49;;;;;;;;;;;;;;;3.46;78.57;101388.06;5055884;27;19917;-67
2022/01/10 09:31:15;;;;;;;;;;;;;;;3.52;78.92;101382.53;5039028;27;19908;-68
2022/01/10 09:33:40;;;;;;;;;;;;;;;3.49;78.95;101393.16;5054228;27;19903;-67
2022/01/10 09:36:05;;;;;;;;;;;;;;;3.75;78.56;101400.56;5039011;27;19907;-69
2022/01/10 09:38:31;;;;;;;;;;;;;;;3.93;77.83;101409.28;5032658;27;20386;-70
2022/01/10 09:40:56;;;;;;;;;;;;;;;4.12;76.85;101403.94;5056980;27;20917;-69
2022/01/10 09:43:21;;;;;;;;;;;;;;;4.42;77.12;101408.50;5037547;27;20282;-68
2022/01/10 09:45:47;;;;;;;;;;;;;;;4.67;76.08;101399.34;5041727;27;20166;-69
2022/01/10 09:48:12;;;;;;;;;;;;;;;5.14;74.71;101406.38;5056775;27;19915;-68
2022/01/10 09:50:37;;;;;;;;;;;;;;;5.45;72.94;101409.91;5040486;27;19972;-67
2022/01/10 09:53:03;;;;;;;;;;;;;;;6.05;71.45;101408.25;5041155;27;20165;-66
2022/01/10 09:55:31;;;;;;;;;;;;;;;6.38;70.09;101407.16;5056172;27;19903;-67
2022/01/10 09:57:56;;;;;;;;;;;;;;;6.28;70.11;101411.28;5030088;27;21033;-67
2022/01/10 10:00:21;;;;;;;;;;;;;;;6.52;69.43;101420.31;5038036;27;19927;-66
2022/01/10 10:02:47;;;;;;;;;;;;;;;6.74;68.65;101424.25;5036934;27;19945;-67
2022/01/10 10:05:13;;;;;;;;;;;;;;;6.85;69.00;101434.97;5041461;27;19915;-68
2022/01/10 10:07:38;;;;;;;;;;;;;;;7.36;67.33;101444.06;5032415;27;20002;-68
2022/01/10 10:10:07;;;;;;;;;;;;;;;7.83;65.45;101453.28;5031707;27;19908;-68
2022/01/10 10:12:32;;;;;;;;;;;;;;;8.12;63.42;101458.41;5058334;27;20382;-68
2022/01/10 10:14:59;;;;;;;;;;;;;;;8.42;62.14;101460.75;5021639;27;20301;-68
2022/01/10 10:17:24;;;;;;;;;;;;;;;8.75;61.48;101469.13;5038264;27;19911;-66
2022/01/10 10:19:49;;;;;;;;;;;;;;;8.72;61.00;101477.25;5057536;27;19975;-68
2022/01/10 10:22:15;;;;;;;;;;;;;;;8.88;60.18;101475.25;5057663;27;19899;-69
2022/01/10 10:24:40;;;;;;;;;;;;;;;8.99;59.73;101477.09;5036388;27;19907;-67
2022/01/10 10:27:05;;;;;;;;;;;;;;;9.22;59.37;101485.19;5051323;27;19907;-67
2022/01/10 10:29:30;;;;;;;;;;;;;;;9.85;57.81;101477.97;5057678;27;20051;-68
2022/01/10 10:31:56;;;;;;;;;;;;;;;9.97;56.96;101485.00;5036839;27;19916;-67
2022/01/10 10:34:27;;;;;;;;;;;;;;;10.17;56.19;101487.09;5039579;27;20279;-67
2022/01/10 10:37:05;;;;;;;;;;;;;;;9.94;56.35;101484.38;5055577;27;19911;-67
2022/01/10 10:39:30;;;;;;;;;;;;;;;9.50;58.27;101486.69;5042869;27;19952;-66
2022/01/10 10:41:58;;;;;;;;;;;;;;;9.04;59.95;101485.56;5039442;27;19908;-67
2022/01/10 10:44:24;;;;;;;;;;;;;;;8.79;60.88;101486.44;5067115;27;20513;-68
2022/01/10 10:46:49;;;;;;;;;;;;;;;8.47;61.90;101483.38;5065114;27;19907;-66
2022/01/10 10:49:18;;;;;;;;;;;;;;;8.16;61.90;101482.78;5047127;27;19907;-69
2022/01/10 10:51:45;;;;;;;;;;;;;;;8.11;63.06;101488.38;5048409;27;19907;-67
2022/01/10 10:54:10;;;;;;;;;;;;;;;8.12;63.38;101492.66;5047590;27;20253;-67
2022/01/10 10:56:37;;;;;;;;;;;;;;;8.11;63.92;101501.53;5047990;27;20047;-67
2022/01/10 10:59:03;;;;;;;;;;;;;;;8.56;62.68;101496.78;5047846;27;19903;-67
2022/01/10 11:01:29;;;;;;;;;;;;;;;8.71;61.91;101496.66;5065052;27;20035;-67
2022/01/10 11:03:54;;;;;;;;;;;;;;;8.72;61.10;101506.28;5056132;27;19904;-68
2022/01/10 11:06:19;;;;;;;;;;;;;;;9.03;60.23;101506.78;5080107;27;20850;-68
2022/01/10 11:08:44;;;;;;;;;;;;;;;9.29;59.97;101512.84;5044732;27;19912;-68
2022/01/10 11:11:13;;;;;;;;;;;;;;;9.47;58.80;101523.91;5045897;27;19912;-67
2022/01/10 11:13:38;;;;;;;;;;;;;;;9.63;58.83;101529.78;5064060;27;19910;-69
2022/01/10 11:16:04;;;;;;;;;;;;;;;9.65;58.13;101532.28;5044684;27;19903;-68
2022/01/10 11:18:29;;;;;;;;;;;;;;;9.67;58.71;101524.25;5065099;27;19907;-69
2022/01/10 11:20:55;;;;;;;;;;;;;;;9.84;57.71;101531.78;5065660;27;19911;-67
2022/01/10 11:23:21;;;;;;;;;;;;;;;9.88;57.00;101527.13;5062894;27;19960;-68
2022/01/10 11:25:46;;;;;;;;;;;;;;;9.76;57.14;101535.00;5029356;27;20379;-67
2022/01/10 11:28:24;;;;;;;;;;;;;;;9.82;56.77;101533.72;5062104;27;20372;-68
2022/01/10 11:30:53;;;;;;;;;;;;;;;9.91;56.22;101527.75;5045503;27;19918;-68
2022/01/10 11:33:19;;;;;;;;;;;;;;;9.50;57.07;101536.03;5059303;27;20179;-68
2022/01/10 11:35:49;;;;;;;;;;;;;;;10.08;56.97;101534.44;5040396;27;19914;-67
2022/01/10 11:38:15;;;;;;;;;;;;;;;9.43;58.04;101548.84;5046385;27;19944;-67
2022/01/10 11:40:41;;;;;;;;;;;;;;;9.25;59.39;101549.22;5039395;27;19927;-68
2022/01/10 11:43:06;;;;;;;;;;;;;;;9.38;58.74;101549.19;5045435;27;20370;-67
2022/01/10 11:45:31;;;;;;;;;;;;;;;9.91;57.02;101551.56;5042622;27;19915;-68
2022/01/10 11:48:04;;;;;;;;;;;;;;;10.36;55.67;101550.06;5047331;27;19911;-69
2022/01/10 11:50:30;;;;;;;;;;;;;;;11.05;54.87;101559.81;5062857;27;20700;-67
2022/01/10 11:53:02;;;;;;;;;;;;;;;11.43;52.55;101561.25;5045119;27;19903;-68
2022/01/10 11:55:43;;;;;;;;;;;;;;;11.61;52.96;101559.78;5037443;27;20200;-67
2022/01/10 11:58:15;;;;;;;;;;;;;;;12.47;50.60;101565.16;5044056;27;19909;-68
2022/01/10 12:00:41;;;;;;;;;;;;;;;12.81;49.85;101561.47;5045948;27;20660;-68
2022/01/10 12:03:06;;;;;;;;;;;;;;;13.23;47.76;101569.38;5043684;27;19914;-68
2022/01/10 12:05:31;;;;;;;;;;;;;;;13.99;45.89;101565.34;5044696;27;19903;-68
2022/01/10 12:07:56;;;;;;;;;;;;;;;14.35;45.58;101573.63;5025234;27;19948;-66
2022/01/10 12:10:22;;;;;;;;;;;;;;;14.77;44.49;101584.81;5057857;27;20266;-67
2022/01/10 12:12:50;;;;;;;;;;;;;;;14.89;44.03;101580.16;5023869;27;20120;-66
2022/01/10 12:15:16;;;;;;;;;;;;;;;14.21;43.64;101589.06;5064570;27;19908;-68
2022/01/10 12:17:41;;;;;;;;;;;;;;;14.29;43.86;101579.53;5046965;27;19910;-67
2022/01/10 12:20:08;;;;;;;;;;;;;;;13.97;45.19;101580.63;5062813;27;19919;-67
2022/01/10 12:22:33;;;;;;;;;;;;;;;14.08;44.92;101589.31;5061524;27;20009;-67
2022/01/10 12:24:58;;;;;;;;;;;;;;;13.60;45.89;101589.25;5066128;27;20576;-68
2022/01/10 12:27:23;;;;;;;;;;;;;;;12.67;47.16;101590.03;5062478;27;19912;-67
2022/01/10 12:29:49;;;;;;;;;;;;;;;12.17;48.81;101600.41;5065306;27;20051;-68
2022/01/10 12:32:14;;;;;;;;;;;;;;;12.26;48.20;101597.00;5045303;27;19998;-67
2022/01/10 12:34:41;;;;;;;;;;;;;;;12.15;49.16;101599.69;5064479;27;19909;-70
2022/01/10 12:37:06;;;;;;;;;;;;;;;11.60;49.05;101608.44;5038687;27;19915;-67
2022/01/10 12:39:32;;;;;;;;;;;;;;;11.16;49.66;101613.63;5063424;27;19948;-68
2022/01/10 12:41:58;;;;;;;;;;;;;;;11.30;50.55;101609.91;5043971;27;20236;-67
2022/01/10 12:44:23;;;;;;;;;;;;;;;11.34;50.70;101615.84;5041363;27;20337;-67